sensor_id;sensor_type;location;lat;lon;timestamp;pressure;altitude;pressure_sealevel;temperature;humidity
30875;BME280;17581;43.222;27.924;2023-05-12T00:01:12;101309.97;;;12.07;82.52
30875;BME280;17581;43.222;27.924;2023-05-12T00:03:40;101269.19;;;11.76;82.50
30875;BME280;17581;43.222;27.924;2023-05-12T00:06:06;101299.88;;;11.97;82.94
30875;BME280;17581;43.222;27.924;2023-05-12T00:08:32;101311.94;;;12.05;83.10
30875;BME280;17581;43.222;27.924;2023-05-12T00:10:58;101294.97;;;11.91;83.08
30875;BME280;17581;43.222;27.924;2023-05-12T00:13:23;101280.22;;;11.84;83.18
30875;BME280;17581;43.222;27.924;2023-05-12T00:15:49;101274.81;;;11.73;83.49
30875;BME280;17581;43.222;27.924;2023-05-12T00:18:16;101290.78;;;11.87;83.53
30875;BME280;17581;43.222;27.924;2023-05-12T00:20:41;101277.53;;;11.84;83.59
30875;BME280;17581;43.222;27.924;2023-05-12T00:23:07;101257.47;;;11.65;83.50
30875;BME280;17581;43.222;27.924;2023-05-12T00:25:33;101297.03;;;11.88;83.18
30875;BME280;17581;43.222;27.924;2023-05-12T00:27:58;101292.66;;;11.74;83.67
30875;BME280;17581;43.222;27.924;2023-05-12T00:30:24;101310.41;;;11.89;84.07
30875;BME280;17581;43.222;27.924;2023-05-12T00:32:50;101283.53;;;11.64;84.21
30875;BME280;17581;43.222;27.924;2023-05-12T00:35:16;101278.00;;;11.55;84.64
30875;BME280;17581;43.222;27.924;2023-05-12T00:37:41;101301.75;;;11.73;84.41
30875;BME280;17581;43.222;27.924;2023-05-12T00:40:07;101299.78;;;11.75;84.83
30875;BME280;17581;43.222;27.924;2023-05-12T00:42:34;101299.78;;;11.75;84.50
30875;BME280;17581;43.222;27.924;2023-05-12T00:45:00;101276.16;;;11.55;84.80
30875;BME280;17581;43.222;27.924;2023-05-12T00:47:25;101259.69;;;11.47;84.79
30875;BME280;17581;43.222;27.924;2023-05-12T00:49:51;101303.38;;;11.63;84.74
30875;BME280;17581;43.222;27.924;2023-05-12T00:52:17;101286.94;;;11.55;84.94
30875;BME280;17581;43.222;27.924;2023-05-12T00:54:44;101266.53;;;11.40;84.82
30875;BME280;17581;43.222;27.924;2023-05-12T00:57:10;101304.25;;;11.64;84.94
30875;BME280;17581;43.222;27.924;2023-05-12T00:59:36;101284.56;;;11.51;84.97
30875;BME280;17581;43.222;27.924;2023-05-12T01:02:02;101287.16;;;11.52;85.04
30875;BME280;17581;43.222;27.924;2023-05-12T01:04:28;101280.72;;;11.42;85.53
30875;BME280;17581;43.222;27.924;2023-05-12T01:07:06;101267.94;;;11.33;85.51
30875;BME280;17581;43.222;27.924;2023-05-12T01:09:34;101282.91;;;11.37;85.30
30875;BME280;17581;43.222;27.924;2023-05-12T01:12:00;101258.81;;;11.23;85.35
30875;BME280;17581;43.222;27.924;2023-05-12T01:14:25;101252.13;;;11.28;85.63
30875;BME280;17581;43.222;27.924;2023-05-12T01:16:52;101295.81;;;11.44;85.47
30875;BME280;17581;43.222;27.924;2023-05-12T01:19:39;101259.50;;;11.14;85.61
30875;BME280;17581;43.222;27.924;2023-05-12T01:22:06;101254.34;;;11.11;86.72
30875;BME280;17581;43.222;27.924;2023-05-12T01:24:33;101266.41;;;11.18;86.56
30875;BME280;17581;43.222;27.924;2023-05-12T01:27:00;101275.34;;;11.18;86.93
30875;BME280;17581;43.222;27.924;2023-05-12T01:29:26;101295.84;;;11.32;87.75
30875;BME280;17581;43.222;27.924;2023-05-12T01:31:52;101273.75;;;11.16;87.52
30875;BME280;17581;43.222;27.924;2023-05-12T01:34:19;101276.81;;;11.22;87.15
30875;BME280;17581;43.222;27.924;2023-05-12T01:36:45;101256.81;;;11.14;87.29
30875;BME280;17581;43.222;27.924;2023-05-12T01:39:10;101265.31;;;11.20;87.39
30875;BME280;17581;43.222;27.924;2023-05-12T01:41:37;101278.81;;;11.31;88.11
30875;BME280;17581;43.222;27.924;2023-05-12T01:44:03;101235.09;;;11.04;87.75
30875;BME280;17581;43.222;27.924;2023-05-12T01:46:28;101235.88;;;11.06;87.84
30875;BME280;17581;43.222;27.924;2023-05-12T01:48:53;101239.25;;;11.21;87.60
30875;BME280;17581;43.222;27.924;2023-05-12T01:51:19;101256.81;;;11.14;87.26
30875;BME280;17581;43.222;27.924;2023-05-12T01:53:44;101233.69;;;11.11;87.00
30875;BME280;17581;43.222;27.924;2023-05-12T01:56:10;101237.78;;;11.04;87.32
30875;BME280;17581;43.222;27.924;2023-05-12T01:58:35;101240.38;;;11.06;87.75
30875;BME280;17581;43.222;27.924;2023-05-12T02:01:01;101261.53;;;11.23;87.55
30875;BME280;17581;43.222;27.924;2023-05-12T02:03:27;101251.34;;;11.15;87.51
30875;BME280;17581;43.222;27.924;2023-05-12T02:05:52;101267.03;;;11.21;87.88
30875;BME280;17581;43.222;27.924;2023-05-12T02:08:18;101256.09;;;11.12;87.26
30875;BME280;17581;43.222;27.924;2023-05-12T02:10:43;101259.72;;;11.11;87.83
30875;BME280;17581;43.222;27.924;2023-05-12T02:13:09;101270.28;;;11.14;88.17
30875;BME280;17581;43.222;27.924;2023-05-12T02:15:34;101270.19;;;11.15;87.81
30875;BME280;17581;43.222;27.924;2023-05-12T02:18:00;101278.44;;;11.25;88.13
30875;BME280;17581;43.222;27.924;2023-05-12T02:20:25;101213.72;;;10.90;87.98
30875;BME280;17581;43.222;27.924;2023-05-12T02:22:53;101243.06;;;11.06;87.93
30875;BME280;17581;43.222;27.924;2023-05-12T02:25:18;101270.69;;;11.20;88.04
30875;BME280;17581;43.222;27.924;2023-05-12T02:27:44;101230.38;;;10.95;88.31
30875;BME280;17581;43.222;27.924;2023-05-12T02:30:10;101272.97;;;11.14;88.38
30875;BME280;17581;43.222;27.924;2023-05-12T02:32:35;101228.69;;;10.94;88.55
30875;BME280;17581;43.222;27.924;2023-05-12T02:35:01;101232.47;;;10.91;88.77
30875;BME280;17581;43.222;27.924;2023-05-12T02:37:26;101256.41;;;11.07;88.90
30875;BME280;17581;43.222;27.924;2023-05-12T02:39:52;101247.31;;;10.97;89.00
30875;BME280;17581;43.222;27.924;2023-05-12T02:42:17;101246.88;;;10.90;89.40
30875;BME280;17581;43.222;27.924;2023-05-12T02:44:43;101226.03;;;10.81;89.41
30875;BME280;17581;43.222;27.924;2023-05-12T02:47:08;101236.56;;;10.84;89.66
30875;BME280;17581;43.222;27.924;2023-05-12T02:49:33;101258.50;;;11.04;89.25
30875;BME280;17581;43.222;27.924;2023-05-12T02:52:00;101237.66;;;10.82;88.97
30875;BME280;17581;43.222;27.924;2023-05-12T02:54:26;101233.34;;;10.79;88.96
30875;BME280;17581;43.222;27.924;2023-05-12T02:56:51;101237.22;;;10.88;89.15
30875;BME280;17581;43.222;27.924;2023-05-12T02:59:17;101244.19;;;10.90;88.31
30875;BME280;17581;43.222;27.924;2023-05-12T03:01:43;101277.63;;;11.12;88.58
30875;BME280;17581;43.222;27.924;2023-05-12T03:04:08;101246.25;;;10.87;88.02
30875;BME280;17581;43.222;27.924;2023-05-12T03:06:33;101247.22;;;10.86;88.28
30875;BME280;17581;43.222;27.924;2023-05-12T03:08:59;101252.28;;;10.90;87.61
30875;BME280;17581;43.222;27.924;2023-05-12T03:11:25;101250.66;;;10.88;87.84
30875;BME280;17581;43.222;27.924;2023-05-12T03:14:09;101236.38;;;10.75;87.63
30875;BME280;17581;43.222;27.924;2023-05-12T03:16:35;101260.44;;;10.89;87.19
30875;BME280;17581;43.222;27.924;2023-05-12T03:19:01;101240.88;;;10.87;86.60
30875;BME280;17581;43.222;27.924;2023-05-12T03:21:27;101262.00;;;11.04;86.58
30875;BME280;17581;43.222;27.924;2023-05-12T03:23:52;101250.09;;;10.96;86.45
30875;BME280;17581;43.222;27.924;2023-05-12T03:26:18;101300.00;;;11.25;86.45
30875;BME280;17581;43.222;27.924;2023-05-12T03:28:43;101272.22;;;11.12;85.55
30875;BME280;17581;43.222;27.924;2023-05-12T03:31:09;101268.69;;;11.11;85.04
30875;BME280;17581;43.222;27.924;2023-05-12T03:33:34;101273.75;;;11.16;84.52
30875;BME280;17581;43.222;27.924;2023-05-12T03:36:00;101305.53;;;11.34;84.73
30875;BME280;17581;43.222;27.924;2023-05-12T03:38:25;101309.63;;;11.40;83.91
30875;BME280;17581;43.222;27.924;2023-05-12T03:40:51;101294.88;;;11.33;83.85
30875;BME280;17581;43.222;27.924;2023-05-12T03:43:26;101303.25;;;11.41;83.60
30875;BME280;17581;43.222;27.924;2023-05-12T03:45:52;101308.41;;;11.44;83.75
30875;BME280;17581;43.222;27.924;2023-05-12T03:48:17;101292.47;;;11.41;83.35
30875;BME280;17581;43.222;27.924;2023-05-12T03:50:43;101283.94;;;11.47;82.98
30875;BME280;17581;43.222;27.924;2023-05-12T03:53:08;101287.56;;;11.59;82.77
30875;BME280;17581;43.222;27.924;2023-05-12T03:55:34;101278.03;;;11.66;82.58
30875;BME280;17581;43.222;27.924;2023-05-12T03:57:59;101293.19;;;11.79;82.34
30875;BME280;17581;43.222;27.924;2023-05-12T04:00:25;101266.38;;;11.65;81.17
30875;BME280;17581;43.222;27.924;2023-05-12T04:02:50;101280.91;;;11.75;81.37
30875;BME280;17581;43.222;27.924;2023-05-12T04:05:16;101280.63;;;11.91;81.21
30875;BME280;17581;43.222;27.924;2023-05-12T04:07:41;101280.16;;;11.97;80.70
30875;BME280;17581;43.222;27.924;2023-05-12T04:10:07;101287.66;;;12.05;79.27
30875;BME280;17581;43.222;27.924;2023-05-12T04:12:32;101289.66;;;12.14;79.82
30875;BME280;17581;43.222;27.924;2023-05-12T04:14:58;101297.75;;;12.25;79.22
30875;BME280;17581;43.222;27.924;2023-05-12T04:17:24;101267.34;;;12.23;78.64
30875;BME280;17581;43.222;27.924;2023-05-12T04:19:49;101289.44;;;12.39;78.84
30875;BME280;17581;43.222;27.924;2023-05-12T04:22:18;101295.34;;;12.44;77.79
30875;BME280;17581;43.222;27.924;2023-05-12T04:24:43;101273.88;;;12.42;77.42
30875;BME280;17581;43.222;27.924;2023-05-12T04:27:08;101273.88;;;12.42;76.83
30875;BME280;17581;43.222;27.924;2023-05-12T04:29:34;101281.63;;;12.47;76.69
30875;BME280;17581;43.222;27.924;2023-05-12T04:31:59;101296.09;;;12.68;76.41
30875;BME280;17581;43.222;27.924;2023-05-12T04:34:25;101289.59;;;12.71;75.98
30875;BME280;17581;43.222;27.924;2023-05-12T04:37:13;101293.16;;;12.82;75.79
30875;BME280;17581;43.222;27.924;2023-05-12T04:39:39;101256.72;;;12.77;74.94
30875;BME280;17581;43.222;27.924;2023-05-12T04:42:05;101292.91;;;13.07;74.58
30875;BME280;17581;43.222;27.924;2023-05-12T04:44:31;101276.47;;;13.11;73.61
30875;BME280;17581;43.222;27.924;2023-05-12T04:46:56;101259.03;;;13.15;72.84
30875;BME280;17581;43.222;27.924;2023-05-12T04:49:22;101275.56;;;13.32;72.52
30875;BME280;17581;43.222;27.924;2023-05-12T04:51:47;101282.16;;;13.50;71.62
30875;BME280;17581;43.222;27.924;2023-05-12T04:54:13;101274.56;;;13.44;71.09
30875;BME280;17581;43.222;27.924;2023-05-12T04:56:38;101281.25;;;13.61;70.72
30875;BME280;17581;43.222;27.924;2023-05-12T04:59:04;101281.13;;;13.62;70.18
30875;BME280;17581;43.222;27.924;2023-05-12T05:01:29;101280.47;;;13.70;69.63
30875;BME280;17581;43.222;27.924;2023-05-12T05:03:55;101274.81;;;13.73;68.80
30875;BME280;17581;43.222;27.924;2023-05-12T05:06:20;101284.59;;;13.85;68.27
30875;BME280;17581;43.222;27.924;2023-05-12T05:08:45;101261.78;;;13.78;66.85
30875;BME280;17581;43.222;27.924;2023-05-12T05:11:11;101255.31;;;13.90;66.21
30875;BME280;17581;43.222;27.924;2023-05-12T05:13:36;101295.03;;;14.10;64.47
30875;BME280;17581;43.222;27.924;2023-05-12T05:16:02;101270.25;;;14.05;63.66
30875;BME280;17581;43.222;27.924;2023-05-12T05:18:27;101290.56;;;14.21;63.38
30875;BME280;17581;43.222;27.924;2023-05-12T05:20:53;101285.75;;;14.24;62.24
30875;BME280;17581;43.222;27.924;2023-05-12T05:23:19;101278.50;;;14.25;62.43
30875;BME280;17581;43.222;27.924;2023-05-12T05:25:44;101276.72;;;14.35;61.82
30875;BME280;17581;43.222;27.924;2023-05-12T05:28:10;101284.56;;;14.58;60.97
30875;BME280;17581;43.222;27.924;2023-05-12T05:30:35;101304.09;;;14.62;59.07
30875;BME280;17581;43.222;27.924;2023-05-12T05:33:01;101299.31;;;14.75;59.09
30875;BME280;17581;43.222;27.924;2023-05-12T05:35:26;101283.22;;;14.74;59.33
30875;BME280;17581;43.222;27.924;2023-05-12T05:37:52;101282.56;;;14.91;58.68
30875;BME280;17581;43.222;27.924;2023-05-12T05:40:18;101287.03;;;15.01;57.55
30875;BME280;17581;43.222;27.924;2023-05-12T05:42:44;101277.19;;;15.00;54.36
30875;BME280;17581;43.222;27.924;2023-05-12T05:45:10;101298.19;;;15.17;53.70
30875;BME280;17581;43.222;27.924;2023-05-12T05:47:35;101312.50;;;15.29;51.76
30875;BME280;17581;43.222;27.924;2023-05-12T05:50:05;101315.41;;;15.47;51.57
30875;BME280;17581;43.222;27.924;2023-05-12T05:52:30;101310.59;;;15.60;51.71
30875;BME280;17581;43.222;27.924;2023-05-12T05:54:56;101301.75;;;15.58;51.37
30875;BME280;17581;43.222;27.924;2023-05-12T05:57:21;101300.50;;;15.71;50.61
30875;BME280;17581;43.222;27.924;2023-05-12T05:59:47;101316.34;;;15.76;50.63
30875;BME280;17581;43.222;27.924;2023-05-12T06:02:12;101299.19;;;15.75;51.13
30875;BME280;17581;43.222;27.924;2023-05-12T06:04:38;101317.78;;;15.90;51.44
30875;BME280;17581;43.222;27.924;2023-05-12T06:07:03;101294.94;;;15.92;51.20
30875;BME280;17581;43.222;27.924;2023-05-12T06:09:29;101298.22;;;16.05;51.47
30875;BME280;17581;43.222;27.924;2023-05-12T06:11:55;101306.06;;;16.08;51.66
30875;BME280;17581;43.222;27.924;2023-05-12T06:14:20;101319.66;;;16.08;51.27
30875;BME280;17581;43.222;27.924;2023-05-12T06:16:45;101302.22;;;16.20;51.12
30875;BME280;17581;43.222;27.924;2023-05-12T06:19:11;101316.75;;;16.39;50.67
30875;BME280;17581;43.222;27.924;2023-05-12T06:21:37;101292.91;;;16.32;50.44
30875;BME280;17581;43.222;27.924;2023-05-12T06:24:03;101318.88;;;16.45;50.01
30875;BME280;17581;43.222;27.924;2023-05-12T06:26:28;101315.16;;;16.46;50.26
30875;BME280;17581;43.222;27.924;2023-05-12T06:28:54;101318.00;;;16.54;49.53
30875;BME280;17581;43.222;27.924;2023-05-12T06:31:20;101310.59;;;16.56;49.39
30875;BME280;17581;43.222;27.924;2023-05-12T06:33:46;101311.72;;;16.72;49.16
30875;BME280;17581;43.222;27.924;2023-05-12T06:36:11;101295.84;;;16.49;49.99
30875;BME280;17581;43.222;27.924;2023-05-12T06:38:36;101302.56;;;16.64;50.63
30875;BME280;17581;43.222;27.924;2023-05-12T06:41:02;101294.28;;;16.65;50.32
30875;BME280;17581;43.222;27.924;2023-05-12T06:43:27;101326.97;;;16.83;49.85
30875;BME280;17581;43.222;27.924;2023-05-12T06:45:53;101323.69;;;16.70;49.51
30875;BME280;17581;43.222;27.924;2023-05-12T06:48:18;101315.09;;;16.84;49.46
30875;BME280;17581;43.222;27.924;2023-05-12T06:50:44;101317.91;;;16.92;49.64
30875;BME280;17581;43.222;27.924;2023-05-12T06:53:09;101311.03;;;16.98;49.19
30875;BME280;17581;43.222;27.924;2023-05-12T06:55:35;101321.47;;;17.02;48.56
30875;BME280;17581;43.222;27.924;2023-05-12T06:58:01;101318.19;;;16.99;48.66
30875;BME280;17581;43.222;27.924;2023-05-12T07:00:27;101321.69;;;17.18;49.40
30875;BME280;17581;43.222;27.924;2023-05-12T07:02:52;101319.16;;;17.34;49.62
30875;BME280;17581;43.222;27.924;2023-05-12T07:05:18;101306.97;;;17.38;49.00
30875;BME280;17581;43.222;27.924;2023-05-12T07:07:44;101317.84;;;17.66;49.03
30875;BME280;17581;43.222;27.924;2023-05-12T07:10:09;101315.81;;;17.68;47.78
30875;BME280;17581;43.222;27.924;2023-05-12T07:12:35;101322.47;;;17.56;48.76
30875;BME280;17581;43.222;27.924;2023-05-12T07:15:02;101310.00;;;17.63;48.70
30875;BME280;17581;43.222;27.924;2023-05-12T07:17:28;101314.75;;;17.61;47.94
30875;BME280;17581;43.222;27.924;2023-05-12T07:19:54;101327.13;;;17.73;47.22
30875;BME280;17581;43.222;27.924;2023-05-12T07:22:19;101323.84;;;17.87;47.57
30875;BME280;17581;43.222;27.924;2023-05-12T07:24:45;101315.44;;;17.98;46.75
30875;BME280;17581;43.222;27.924;2023-05-12T07:27:10;101324.69;;;18.05;46.13
30875;BME280;17581;43.222;27.924;2023-05-12T07:29:36;101320.41;;;18.20;44.72
30875;BME280;17581;43.222;27.924;2023-05-12T07:32:02;101324.84;;;18.21;45.91
30875;BME280;17581;43.222;27.924;2023-05-12T07:34:27;101322.72;;;18.33;45.49
30875;BME280;17581;43.222;27.924;2023-05-12T07:36:52;101327.00;;;18.35;45.86
30875;BME280;17581;43.222;27.924;2023-05-12T07:39:18;101336.84;;;18.28;45.31
30875;BME280;17581;43.222;27.924;2023-05-12T07:41:48;101335.13;;;18.27;45.09
30875;BME280;17581;43.222;27.924;2023-05-12T07:44:14;101317.28;;;18.33;45.22
30875;BME280;17581;43.222;27.924;2023-05-12T07:46:40;101333.31;;;18.36;43.61
30875;BME280;17581;43.222;27.924;2023-05-12T07:49:06;101338.44;;;18.39;44.06
30875;BME280;17581;43.222;27.924;2023-05-12T07:51:31;101340.94;;;18.50;45.28
30875;BME280;17581;43.222;27.924;2023-05-12T07:53:57;101340.16;;;18.58;44.65
30875;BME280;17581;43.222;27.924;2023-05-12T07:56:23;101354.66;;;18.40;44.86
30875;BME280;17581;43.222;27.924;2023-05-12T07:58:48;101338.28;;;18.23;43.62
30875;BME280;17581;43.222;27.924;2023-05-12T08:01:14;101344.38;;;18.17;44.40
30875;BME280;17581;43.222;27.924;2023-05-12T08:03:39;101338.53;;;18.29;44.33
30875;BME280;17581;43.222;27.924;2023-05-12T08:06:05;101351.47;;;18.27;43.25
30875;BME280;17581;43.222;27.924;2023-05-12T08:08:32;101351.94;;;18.40;43.50
30875;BME280;17581;43.222;27.924;2023-05-12T08:10:57;101348.16;;;18.41;42.90
30875;BME280;17581;43.222;27.924;2023-05-12T08:13:23;101345.22;;;18.35;43.39
30875;BME280;17581;43.222;27.924;2023-05-12T08:15:50;101339.94;;;18.33;43.85
30875;BME280;17581;43.222;27.924;2023-05-12T08:18:16;101351.16;;;18.30;43.63
30875;BME280;17581;43.222;27.924;2023-05-12T08:20:42;101341.03;;;18.40;44.13
30875;BME280;17581;43.222;27.924;2023-05-12T08:23:07;101324.81;;;18.57;42.57
30875;BME280;17581;43.222;27.924;2023-05-12T08:25:33;101340.00;;;18.85;42.67
30875;BME280;17581;43.222;27.924;2023-05-12T08:28:00;101344.13;;;18.89;41.81
30875;BME280;17581;43.222;27.924;2023-05-12T08:30:26;101356.00;;;18.80;42.97
30875;BME280;17581;43.222;27.924;2023-05-12T08:32:53;101362.13;;;18.82;44.37
30875;BME280;17581;43.222;27.924;2023-05-12T08:35:18;101351.97;;;18.92;45.06
30875;BME280;17581;43.222;27.924;2023-05-12T08:37:44;101361.50;;;18.88;44.91
30875;BME280;17581;43.222;27.924;2023-05-12T08:40:20;101364.22;;;18.88;43.97
30875;BME280;17581;43.222;27.924;2023-05-12T08:43:14;101363.53;;;18.86;45.48
30875;BME280;17581;43.222;27.924;2023-05-12T08:45:43;101352.63;;;18.86;47.10
30875;BME280;17581;43.222;27.924;2023-05-12T08:48:09;101358.13;;;18.94;46.79
30875;BME280;17581;43.222;27.924;2023-05-12T08:50:37;101370.56;;;18.96;48.02
30875;BME280;17581;43.222;27.924;2023-05-12T08:53:03;101379.63;;;19.31;47.42
30875;BME280;17581;43.222;27.924;2023-05-12T08:55:32;101369.22;;;19.26;45.03
30875;BME280;17581;43.222;27.924;2023-05-12T08:58:00;101351.41;;;19.40;46.63
30875;BME280;17581;43.222;27.924;2023-05-12T09:00:27;101369.91;;;19.62;47.41
30875;BME280;17581;43.222;27.924;2023-05-12T09:02:55;101370.06;;;19.61;47.29
30875;BME280;17581;43.222;27.924;2023-05-12T09:05:21;101368.88;;;19.63;46.54
30875;BME280;17581;43.222;27.924;2023-05-12T09:07:47;101363.63;;;19.70;47.09
30875;BME280;17581;43.222;27.924;2023-05-12T09:10:15;101359.53;;;19.74;48.19
30875;BME280;17581;43.222;27.924;2023-05-12T09:12:42;101366.19;;;19.71;48.66
30875;BME280;17581;43.222;27.924;2023-05-12T09:15:17;101371.91;;;19.52;48.45
30875;BME280;17581;43.222;27.924;2023-05-12T09:17:44;101369.03;;;19.53;48.47
30875;BME280;17581;43.222;27.924;2023-05-12T09:20:10;101371.97;;;19.68;47.65
30875;BME280;17581;43.222;27.924;2023-05-12T09:22:36;101353.69;;;19.61;47.22
30875;BME280;17581;43.222;27.924;2023-05-12T09:25:17;101356.59;;;19.59;48.39
30875;BME280;17581;43.222;27.924;2023-05-12T09:27:45;101363.91;;;19.50;47.85
30875;BME280;17581;43.222;27.924;2023-05-12T09:30:11;101364.25;;;19.47;47.63
30875;BME280;17581;43.222;27.924;2023-05-12T09:32:37;101366.34;;;19.70;48.06
30875;BME280;17581;43.222;27.924;2023-05-12T09:35:08;101354.25;;;19.72;47.00
30875;BME280;17581;43.222;27.924;2023-05-12T09:37:37;101366.41;;;19.94;46.97
30875;BME280;17581;43.222;27.924;2023-05-12T09:40:05;101353.13;;;19.99;44.09
30875;BME280;17581;43.222;27.924;2023-05-12T09:42:32;101330.38;;;19.66;43.17
30875;BME280;17581;43.222;27.924;2023-05-12T09:44:59;101347.75;;;19.31;44.23
30875;BME280;17581;43.222;27.924;2023-05-12T09:47:27;101359.31;;;19.25;45.62
30875;BME280;17581;43.222;27.924;2023-05-12T09:49:53;101357.81;;;19.31;45.12
30875;BME280;17581;43.222;27.924;2023-05-12T09:52:20;101363.78;;;19.34;44.41
30875;BME280;17581;43.222;27.924;2023-05-12T09:54:46;101360.88;;;19.36;45.05
30875;BME280;17581;43.222;27.924;2023-05-12T09:57:15;101351.16;;;19.33;43.93
30875;BME280;17581;43.222;27.924;2023-05-12T09:59:42;101354.09;;;19.06;43.06
30875;BME280;17581;43.222;27.924;2023-05-12T10:02:10;101352.63;;;18.86;43.53
30875;BME280;17581;43.222;27.924;2023-05-12T10:04:48;101354.78;;;18.74;45.74
30875;BME280;17581;43.222;27.924;2023-05-12T10:07:15;101355.09;;;18.71;46.80
30875;BME280;17581;43.222;27.924;2023-05-12T10:09:43;101350.16;;;18.75;46.50
30875;BME280;17581;43.222;27.924;2023-05-12T10:12:09;101342.16;;;18.73;46.41
30875;BME280;17581;43.222;27.924;2023-05-12T10:14:36;101349.72;;;18.62;46.44
30875;BME280;17581;43.222;27.924;2023-05-12T10:17:02;101347.91;;;18.70;46.33
30875;BME280;17581;43.222;27.924;2023-05-12T10:19:29;101352.31;;;18.89;45.89
30875;BME280;17581;43.222;27.924;2023-05-12T10:21:56;101355.97;;;19.06;45.64
30875;BME280;17581;43.222;27.924;2023-05-12T10:24:24;101354.75;;;19.00;44.97
30875;BME280;17581;43.222;27.924;2023-05-12T10:26:52;101348.53;;;18.90;45.20
30875;BME280;17581;43.222;27.924;2023-05-12T10:29:20;101344.56;;;18.76;45.39
30875;BME280;17581;43.222;27.924;2023-05-12T10:31:46;101358.16;;;19.02;44.98
30875;BME280;17581;43.222;27.924;2023-05-12T10:34:16;101350.47;;;19.31;44.45
30875;BME280;17581;43.222;27.924;2023-05-12T10:36:47;101336.50;;;19.34;42.68
30875;BME280;17581;43.222;27.924;2023-05-12T10:39:13;101348.19;;;19.44;42.25
30875;BME280;17581;43.222;27.924;2023-05-12T10:41:42;101346.03;;;19.30;42.00
30875;BME280;17581;43.222;27.924;2023-05-12T10:44:08;101345.34;;;19.28;41.45
30875;BME280;17581;43.222;27.924;2023-05-12T10:46:36;101353.28;;;19.39;40.73
30875;BME280;17581;43.222;27.924;2023-05-12T10:49:06;101336.19;;;19.37;40.46
30875;BME280;17581;43.222;27.924;2023-05-12T10:51:34;101350.81;;;19.28;39.25
30875;BME280;17581;43.222;27.924;2023-05-12T10:54:23;101345.94;;;19.40;39.79
30875;BME280;17581;43.222;27.924;2023-05-12T10:56:49;101355.72;;;19.17;39.15
30875;BME280;17581;43.222;27.924;2023-05-12T10:59:20;101348.84;;;19.13;39.93
30875;BME280;17581;43.222;27.924;2023-05-12T11:02:00;101344.34;;;18.95;40.75
30875;BME280;17581;43.222;27.924;2023-05-12T11:04:46;101346.25;;;19.03;40.82
30875;BME280;17581;43.222;27.924;2023-05-12T11:07:13;101338.28;;;18.84;39.72
30875;BME280;17581;43.222;27.924;2023-05-12T11:09:44;101336.16;;;18.70;38.68
30875;BME280;17581;43.222;27.924;2023-05-12T11:12:11;101339.38;;;18.65;38.13
30875;BME280;17581;43.222;27.924;2023-05-12T11:14:37;101357.63;;;18.73;37.96
30875;BME280;17581;43.222;27.924;2023-05-12T11:17:03;101351.50;;;18.71;37.95
30875;BME280;17581;43.222;27.924;2023-05-12T11:19:29;101349.81;;;18.78;37.88
30875;BME280;17581;43.222;27.924;2023-05-12T11:21:56;101341.09;;;18.92;37.54
30875;BME280;17581;43.222;27.924;2023-05-12T11:24:21;101337.63;;;18.90;36.60
30875;BME280;17581;43.222;27.924;2023-05-12T11:26:47;101351.00;;;19.01;37.95
30875;BME280;17581;43.222;27.924;2023-05-12T11:29:19;101349.06;;;19.19;37.30
30875;BME280;17581;43.222;27.924;2023-05-12T11:31:52;101359.13;;;19.19;38.08
30875;BME280;17581;43.222;27.924;2023-05-12T11:34:22;101345.66;;;19.17;38.32
30875;BME280;17581;43.222;27.924;2023-05-12T11:36:50;101353.22;;;19.31;38.07
30875;BME280;17581;43.222;27.924;2023-05-12T11:39:20;101356.72;;;19.16;38.03
30875;BME280;17581;43.222;27.924;2023-05-12T11:41:47;101357.47;;;19.26;38.05
30875;BME280;17581;43.222;27.924;2023-05-12T11:44:21;101352.16;;;19.24;37.12
30875;BME280;17581;43.222;27.924;2023-05-12T11:49:45;101349.34;;;19.42;36.33
30875;BME280;17581;43.222;27.924;2023-05-12T11:52:12;101351.28;;;19.49;35.92
30875;BME280;17581;43.222;27.924;2023-05-12T11:54:38;101353.00;;;19.50;35.42
30875;BME280;17581;43.222;27.924;2023-05-12T11:57:04;101367.19;;;19.36;35.55
30875;BME280;17581;43.222;27.924;2023-05-12T11:59:31;101326.50;;;19.09;35.49
30875;BME280;17581;43.222;27.924;2023-05-12T12:01:59;101350.97;;;19.27;36.10
30875;BME280;17581;43.222;27.924;2023-05-12T12:04:35;101350.47;;;19.23;37.05
30875;BME280;17581;43.222;27.924;2023-05-12T12:07:01;101346.56;;;19.34;36.03
30875;BME280;17581;43.222;27.924;2023-05-12T12:09:33;101347.03;;;19.55;35.39
30875;BME280;17581;43.222;27.924;2023-05-12T12:11:59;101348.91;;;19.54;34.63
30875;BME280;17581;43.222;27.924;2023-05-12T12:14:25;101325.84;;;19.15;34.00
30875;BME280;17581;43.222;27.924;2023-05-12T12:16:50;101333.22;;;19.23;33.91
30875;BME280;17581;43.222;27.924;2023-05-12T12:19:15;101346.47;;;19.18;33.88
30875;BME280;17581;43.222;27.924;2023-05-12T12:21:41;101340.63;;;19.38;33.58
30875;BME280;17581;43.222;27.924;2023-05-12T12:24:07;101332.91;;;19.60;35.18
30875;BME280;17581;43.222;27.924;2023-05-12T12:26:32;101320.59;;;19.55;34.37
30875;BME280;17581;43.222;27.924;2023-05-12T12:28:58;101327.44;;;19.60;34.96
30875;BME280;17581;43.222;27.924;2023-05-12T12:31:23;101315.81;;;19.58;35.00
30875;BME280;17581;43.222;27.924;2023-05-12T12:33:49;101343.00;;;19.75;33.44
30875;BME280;17581;43.222;27.924;2023-05-12T12:36:14;101316.19;;;19.71;33.03
30875;BME280;17581;43.222;27.924;2023-05-12T12:38:39;101338.41;;;20.00;33.14
30875;BME280;17581;43.222;27.924;2023-05-12T12:41:06;101345.25;;;19.96;32.36